createdAt,value
2022-10-22T19:24:07.201Z,5.95
2022-10-22T19:26:33.794Z,6.80
2022-10-22T19:29:00.751Z,7.35
2022-10-22T19:31:29.936Z,7.85
2022-10-22T19:33:57.177Z,6.35
2022-10-22T19:36:25.205Z,6.82
2022-10-22T19:38:51.802Z,4.88
2022-10-22T19:41:19.823Z,4.22
2022-10-22T19:43:49.367Z,4.80
2022-10-22T19:46:16.372Z,4.53
2022-10-22T19:48:42.958Z,4.25
2022-10-22T19:51:11.254Z,4.25
2022-10-22T19:53:38.712Z,3.92
2022-10-22T19:56:07.039Z,5.20
2022-10-22T19:58:33.753Z,4.65
2022-10-22T20:01:11.441Z,5.18
2022-10-22T20:03:38.870Z,4.95
2022-10-22T20:06:07.627Z,4.72
2022-10-22T20:08:38.005Z,5.72
2022-10-22T20:11:10.687Z,6.65
2022-10-22T20:13:37.620Z,6.15
2022-10-22T20:16:05.101Z,4.97
2022-10-22T20:18:34.011Z,5.85
2022-10-22T20:21:07.670Z,6.35
2022-10-22T20:23:34.354Z,6.57
2022-10-22T20:26:00.902Z,5.95
2022-10-22T20:28:27.434Z,5.93
2022-10-22T20:30:53.941Z,6.47
2022-10-22T20:33:20.506Z,6.60
2022-10-22T20:35:47.066Z,5.82
2022-10-22T20:38:14.701Z,7.60
2022-10-22T20:40:41.469Z,6.70
2022-10-22T20:43:10.539Z,5.13
2022-10-22T20:45:38.846Z,6.55
2022-10-22T20:48:06.008Z,7.90
2022-10-22T20:50:32.830Z,6.10
2022-10-22T20:52:59.721Z,7.00
2022-10-22T20:55:26.555Z,6.28
2022-10-22T20:57:53.025Z,6.80
2022-10-22T21:00:19.584Z,7.07
2022-10-22T21:02:46.193Z,5.57
2022-10-22T21:05:12.686Z,6.93
2022-10-22T21:07:39.391Z,7.30
2022-10-22T21:10:06.493Z,6.68
2022-10-22T21:12:32.989Z,7.53
2022-10-22T21:14:59.548Z,6.80
2022-10-22T21:17:26.033Z,6.90
2022-10-22T21:19:52.554Z,7.38
2022-10-22T21:22:19.059Z,6.65
2022-10-22T21:24:45.543Z,7.30
2022-10-22T21:27:12.073Z,6.55
2022-10-22T21:29:38.713Z,6.38
2022-10-22T21:32:05.389Z,6.57
2022-10-22T21:34:36.727Z,5.55
2022-10-22T21:37:05.458Z,6.32
2022-10-22T21:39:31.959Z,5.68
2022-10-22T21:41:58.466Z,6.85
2022-10-22T21:44:24.987Z,6.25
2022-10-22T21:46:51.481Z,6.78
2022-10-22T21:49:18.124Z,6.10
2022-10-22T21:51:44.724Z,5.78
2022-10-22T21:54:12.541Z,5.35
2022-10-22T21:56:39.434Z,5.95
2022-10-22T21:59:06.593Z,7.80
2022-10-22T22:01:33.305Z,6.32
2022-10-22T22:03:59.898Z,5.70
2022-10-22T22:06:30.804Z,7.03
2022-10-22T22:08:59.583Z,6.20
2022-10-22T22:11:27.942Z,5.72
2022-10-22T22:13:55.537Z,6.38
2022-10-22T22:16:27.275Z,6.82
2022-10-22T22:18:56.800Z,6.10
2022-10-22T22:21:23.372Z,5.68
2022-10-22T22:23:50.731Z,5.20
2022-10-22T22:26:25.273Z,4.60
2022-10-22T22:28:55.387Z,5.65
2022-10-22T22:31:25.332Z,5.85
2022-10-22T22:33:57.642Z,4.65
2022-10-22T22:36:24.109Z,4.22
2022-10-22T22:38:55.182Z,4.07
2022-10-22T22:41:21.797Z,4.72
2022-10-22T22:43:48.282Z,3.90
2022-10-22T22:46:14.830Z,4.85
2022-10-22T22:48:41.323Z,4.93
2022-10-22T22:51:08.054Z,4.72
2022-10-22T22:53:34.777Z,4.72
2022-10-22T22:56:11.305Z,4.20
2022-10-22T22:58:40.411Z,4.43
2022-10-22T23:01:20.517Z,3.78
2022-10-22T23:03:52.274Z,3.88
2022-10-22T23:06:18.767Z,4.43
2022-10-22T23:08:49.453Z,3.85
2022-10-22T23:11:16.041Z,3.22
2022-10-22T23:13:42.952Z,3.33
2022-10-22T23:16:13.974Z,3.90
2022-10-22T23:18:40.787Z,4.00
2022-10-22T23:21:12.321Z,4.45
2022-10-22T23:23:38.804Z,4.07
2022-10-22T23:26:05.397Z,3.95
2022-10-22T23:28:31.915Z,4.15
2022-10-22T23:30:58.533Z,3.38
2022-10-22T23:33:24.993Z,3.78
2022-10-22T23:35:51.480Z,4.18
2022-10-22T23:38:17.957Z,4.10
2022-10-22T23:40:44.483Z,4.03
2022-10-22T23:43:11.009Z,4.25
2022-10-22T23:45:37.536Z,4.10
2022-10-22T23:48:04.196Z,3.13
2022-10-22T23:50:30.724Z,3.97
2022-10-22T23:52:57.220Z,3.65
2022-10-22T23:55:23.722Z,4.53
2022-10-22T23:57:50.248Z,3.70
